Time;durP1;ratioP1;P1;durP2;ratioP2;P2;SDS_P1;SDS_P2;PMS_P1;PMS_P2;Temp;Humidity;BMP_temperature;BMP_pressure;BME280_temperature;BME280_humidity;BME280_pressure;Samples;Min_cycle;Max_cycle;Signal;HPM_P1;HPM_P2
2023/10/18 00:01:06;;;;;;;5.90;4.13;;;9.40;84.20;;;10.99;58.63;101718.78;3082370;46;20523;-66
2023/10/18 00:03:36;;;;;;;4.07;3.43;;;9.40;84.00;;;10.97;58.67;101720.75;3082524;46;20513;-66
2023/10/18 00:06:18;;;;;;;7.77;4.27;;;9.40;84.10;;;10.95;58.48;101720.06;3082795;46;20430;-66
2023/10/18 00:08:47;;;;;;;6.10;3.97;;;9.40;84.20;;;10.94;58.74;101715.75;3082358;46;20433;-65
2023/10/18 00:11:16;;;;;;;5.73;3.93;;;9.40;84.20;;;10.93;58.90;101714.13;3082466;46;20427;-65
2023/10/18 00:13:49;;;;;;;6.27;4.10;;;9.40;84.30;;;10.93;58.73;101714.97;3082726;46;20431;-66
2023/10/18 00:16:18;;;;;;;7.23;4.00;;;9.40;84.30;;;10.94;58.89;101715.75;3082724;46;20472;-66
2023/10/18 00:18:46;;;;;;;5.27;3.43;;;9.40;84.60;;;10.96;58.91;101713.84;3081657;46;20811;-66
2023/10/18 00:21:15;;;;;;;5.37;3.57;;;9.40;84.20;;;10.96;58.68;101714.63;3082535;46;20565;-66
2023/10/18 00:23:44;;;;;;;4.73;3.70;;;9.40;84.10;;;10.96;58.64;101708.56;3082650;46;21008;-66
2023/10/18 00:26:12;;;;;;;4.93;3.43;;;9.40;84.00;;;10.93;58.37;101709.69;3082757;46;20446;-66
2023/10/18 00:28:41;;;;;;;6.23;3.60;;;9.40;83.80;;;10.89;58.60;101709.16;3082342;46;20448;-64
2023/10/18 00:31:18;;;;;;;5.20;4.23;;;9.30;83.90;;;10.88;58.57;101707.53;3082139;46;20459;-66
2023/10/18 00:33:49;;;;;;;5.63;3.57;;;9.30;83.90;;;10.86;58.53;101714.72;3082324;46;20513;-66
2023/10/18 00:36:18;;;;;;;3.63;3.27;;;9.30;83.90;;;10.84;58.59;101711.41;3082542;46;20438;-66
2023/10/18 00:38:47;;;;;;;5.30;3.53;;;9.30;83.90;;;10.81;58.60;101706.47;3082025;46;20440;-66
2023/10/18 00:41:32;;;;;;;4.17;3.13;;;9.30;83.70;;;10.79;58.83;101705.78;3082497;46;20427;-65
2023/10/18 00:44:01;;;;;;;6.50;3.33;;;9.20;84.10;;;10.78;58.71;101705.94;3082108;46;21059;-64
2023/10/18 00:46:29;;;;;;;7.03;3.40;;;9.20;84.00;;;10.76;58.79;101703.47;3082518;46;20473;-64
2023/10/18 00:48:59;;;;;;;7.10;4.33;;;9.20;84.10;;;10.74;58.96;101702.75;3082024;46;20431;-69
2023/10/18 00:51:28;;;;;;;6.53;4.00;;;9.20;84.40;;;10.76;59.00;101698.19;3082516;46;20493;-65
2023/10/18 00:53:56;;;;;;;5.77;3.30;;;9.20;84.30;;;10.76;58.93;101695.56;3081439;46;20453;-65
2023/10/18 00:56:26;;;;;;;7.60;4.00;;;9.20;84.20;;;10.77;58.69;101699.84;3080523;46;20485;-66
2023/10/18 00:58:58;;;;;;;4.40;3.50;;;9.20;84.20;;;10.76;58.92;101703.47;3082333;46;20497;-66
2023/10/18 01:01:26;;;;;;;4.60;3.90;;;9.20;84.30;;;10.74;58.74;101694.88;3081856;46;21047;-66
2023/10/18 01:03:56;;;;;;;3.63;3.00;;;9.20;84.00;;;10.73;58.86;101685.34;3081405;46;20468;-66
2023/10/18 01:06:26;;;;;;;4.50;3.10;;;9.20;84.40;;;10.74;58.92;101688.81;3082181;46;20493;-65
2023/10/18 01:08:58;;;;;;;5.27;3.50;;;9.20;84.40;;;10.73;58.86;101687.97;3081731;46;20513;-65
2023/10/18 01:11:28;;;;;;;4.27;3.00;;;9.20;84.30;;;10.72;58.64;101690.75;3082394;46;20532;-64
2023/10/18 01:14:00;;;;;;;5.63;3.13;;;9.20;84.00;;;10.66;58.72;101684.28;3082460;46;21017;-65
2023/10/18 01:16:35;;;;;;;4.77;3.73;;;9.10;84.00;;;10.68;59.18;101687.59;3082156;46;20431;-66
2023/10/18 01:19:08;;;;;;;3.97;3.30;;;9.20;84.90;;;10.73;59.04;101681.88;3081881;46;20431;-66
2023/10/18 01:21:37;;;;;;;4.23;3.17;;;9.20;84.40;;;10.76;59.21;101677.13;3082025;46;20419;-66
2023/10/18 01:24:13;;;;;;;3.47;3.10;;;9.20;84.30;;;10.78;58.96;101675.19;3082214;46;21006;-66
2023/10/18 01:26:42;;;;;;;4.30;3.47;;;9.20;84.50;;;10.79;58.70;101663.66;3081970;46;21035;-65
2023/10/18 01:29:11;;;;;;;4.33;3.33;;;9.20;84.10;;;10.81;58.56;101660.88;3081784;46;20580;-66
2023/10/18 01:31:44;;;;;;;4.80;3.37;;;9.20;83.90;;;10.82;58.74;101665.97;3081929;46;21095;-66
2023/10/18 01:34:14;;;;;;;8.93;3.33;;;9.20;83.90;;;10.82;58.73;101665.97;3082086;46;21059;-70
2023/10/18 01:36:43;;;;;;;6.57;3.43;;;9.30;83.90;;;10.80;58.48;101652.16;3081681;46;20470;-64
2023/10/18 01:39:20;;;;;;;3.43;3.00;;;9.30;83.40;;;10.80;58.48;101652.16;3081193;46;20998;-65
2023/10/18 01:41:55;;;;;;;6.13;3.03;;;9.20;83.30;;;10.78;58.47;101654.09;3081915;46;20435;-66
2023/10/18 01:44:38;;;;;;;6.40;3.20;;;9.20;83.50;;;10.73;58.47;101656.38;3081604;46;20502;-66
2023/10/18 01:47:07;;;;;;;5.67;3.70;;;9.20;83.40;;;10.73;58.38;101645.00;3081736;46;20431;-66
2023/10/18 01:49:46;;;;;;;3.80;3.40;;;9.20;83.70;;;10.74;58.66;101641.41;3081215;46;20447;-65
2023/10/18 01:52:17;;;;;;;4.90;2.93;;;9.20;83.70;;;10.74;58.42;101647.47;3081900;46;21012;-65
2023/10/18 01:54:48;;;;;;;3.87;3.13;;;9.20;83.70;;;10.76;58.46;101650.81;3081499;46;20480;-66
2023/10/18 01:57:17;;;;;;;4.03;3.10;;;9.20;83.70;;;10.74;58.54;101641.41;3081215;46;20513;-66
2023/10/18 01:59:50;;;;;;;3.90;2.70;;;9.20;83.90;;;10.74;58.43;101647.47;3081276;46;20464;-66
2023/10/18 02:02:18;;;;;;;3.97;2.83;;;9.20;83.50;;;10.74;58.53;101636.94;3081714;46;20456;-65
2023/10/18 02:04:49;;;;;;;3.80;3.10;;;9.20;83.50;;;10.73;58.55;101629.22;3081348;46;20468;-66
2023/10/18 02:07:21;;;;;;;2.93;2.73;;;9.20;83.50;;;10.71;58.57;101626.75;3081460;46;20430;-66
2023/10/18 02:09:57;;;;;;;3.80;2.70;;;9.20;83.40;;;10.67;58.07;101625.38;3081033;46;21035;-66
2023/10/18 02:12:27;;;;;;;4.47;3.30;;;9.10;83.00;;;10.63;57.98;101624.03;3081534;46;20427;-66
2023/10/18 02:14:55;;;;;;;4.23;3.37;;;9.10;83.00;;;10.62;58.25;101626.84;3080878;46;20479;-66
2023/10/18 02:17:24;;;;;;;3.50;3.20;;;9.10;83.40;;;10.60;58.40;101619.06;3081519;46;20511;-66
2023/10/18 02:19:54;;;;;;;4.17;3.07;;;9.10;83.00;;;10.57;58.15;101627.28;3080981;46;20452;-64
2023/10/18 02:22:22;;;;;;;5.20;3.10;;;9.00;83.00;;;10.54;58.09;101619.69;3081163;46;21178;-66
2023/10/18 02:24:50;;;;;;;5.63;3.70;;;9.00;83.00;;;10.52;58.26;101615.56;3081476;46;20432;-66
2023/10/18 02:27:19;;;;;;;3.87;3.23;;;9.00;83.20;;;10.50;58.45;101612.25;3081411;46;20428;-63
2023/10/18 02:29:48;;;;;;;4.80;3.50;;;8.90;83.30;;;10.49;58.48;101611.41;3080808;46;20471;-64
2023/10/18 02:35:08;;;;;;;4.87;3.33;;;8.90;83.30;;;10.51;58.46;101598.94;3081429;46;20427;-66
2023/10/18 02:37:37;;;;;;;4.93;3.37;;;9.00;83.20;;;10.50;58.29;101593.84;3081111;46;20455;-66
2023/10/18 02:40:17;;;;;;;3.80;3.23;;;8.90;83.00;;;10.47;58.13;101592.34;3080580;46;20568;-66
2023/10/18 02:42:45;;;;;;;3.43;2.90;;;8.90;83.20;;;10.47;58.39;101591.50;3081222;46;20455;-66
2023/10/18 02:45:17;;;;;;;4.17;3.13;;;8.90;83.40;;;10.48;58.59;101583.47;3081133;46;20431;-65
2023/10/18 02:47:45;;;;;;;5.23;2.67;;;8.90;83.40;;;10.53;58.20;101588.28;3081521;46;20427;-66
2023/10/18 02:50:14;;;;;;;3.93;3.53;;;9.00;83.10;;;10.53;58.19;101586.44;3080625;46;20439;-66
2023/10/18 02:52:43;;;;;;;3.73;3.20;;;9.00;83.00;;;10.51;58.10;101598.94;3081303;46;20532;-66
2023/10/18 02:55:13;;;;;;;3.37;3.07;;;9.00;82.90;;;10.49;58.04;101595.63;3080117;46;20971;-66
2023/10/18 02:57:46;;;;;;;6.50;3.00;;;8.90;82.70;;;10.48;58.38;101596.63;3080428;46;20431;-68
2023/10/18 03:00:19;;;;;;;4.23;3.47;;;8.90;83.10;;;10.51;58.22;101598.94;3080480;46;20464;-66
2023/10/18 03:02:48;;;;;;;4.97;3.43;;;8.90;84.20;;;10.56;58.22;101601.09;3081110;46;20537;-66
2023/10/18 03:05:19;;;;;;;4.47;3.20;;;9.00;83.00;;;10.56;57.93;101593.22;3080670;46;20485;-63
2023/10/18 03:07:48;;;;;;;5.83;3.97;;;9.00;82.60;;;10.55;57.71;101588.94;3079952;46;20423;-65
2023/10/18 03:10:27;;;;;;;4.63;3.93;;;9.00;82.50;;;10.53;57.73;101594.34;3080279;46;20471;-66
2023/10/18 03:12:56;;;;;;;5.53;4.17;;;9.00;82.30;;;10.49;57.62;101590.38;3081023;46;20506;-66
2023/10/18 03:15:25;;;;;;;7.67;3.80;;;8.90;82.20;;;10.44;57.82;101590.00;3080512;46;21123;-66
2023/10/18 03:17:56;;;;;;;7.30;3.83;;;8.90;82.40;;;10.42;58.19;101589.31;3080567;46;20453;-66
2023/10/18 03:20:24;;;;;;;5.00;3.37;;;8.90;82.90;;;10.43;58.06;101585.72;3080223;46;20467;-66
2023/10/18 03:22:55;;;;;;;3.90;3.07;;;8.90;83.00;;;10.47;58.15;101586.22;3080929;46;20437;-63
2023/10/18 03:25:26;;;;;;;4.87;3.27;;;8.90;83.00;;;10.48;58.10;101583.47;3081021;46;21106;-66
2023/10/18 03:27:58;;;;;;;3.80;3.50;;;8.90;82.60;;;10.47;57.83;101581.81;3083192;46;21095;-66
2023/10/18 03:30:44;;;;;;;6.73;3.87;;;8.90;82.80;;;10.45;57.79;101582.94;3082749;46;20459;-67
2023/10/18 03:33:14;;;;;;;3.97;3.43;;;8.90;82.60;;;10.42;57.64;101578.78;3083248;46;20433;-65
2023/10/18 03:35:43;;;;;;;6.57;3.57;;;8.90;82.40;;;10.36;57.60;101584.69;3082985;46;20509;-66
2023/10/18 03:38:17;;;;;;;4.37;3.67;;;8.80;82.40;;;10.31;57.78;101589.56;3082743;46;21019;-65
2023/10/18 03:40:56;;;;;;;4.77;3.30;;;8.80;82.30;;;10.26;58.08;101586.56;3082770;46;20442;-63
2023/10/18 03:43:32;;;;;;;3.60;3.10;;;8.70;82.60;;;10.21;58.01;101580.94;3083279;46;20427;-63
2023/10/18 03:46:13;;;;;;;5.37;3.40;;;8.70;83.00;;;10.20;58.15;101574.00;3082857;46;20452;-64
2023/10/18 03:48:46;;;;;;;6.50;4.00;;;8.70;83.30;;;10.20;58.14;101582.72;3082921;46;20488;-64
2023/10/18 03:51:18;;;;;;;5.17;3.30;;;8.60;83.10;;;10.20;58.43;101574.00;3082727;46;21003;-64
2023/10/18 03:53:51;;;;;;;3.67;3.30;;;8.70;83.30;;;10.22;58.40;101572.06;3082971;46;20427;-66
2023/10/18 03:56:22;;;;;;;6.03;3.60;;;8.60;83.30;;;10.23;58.23;101568.44;3082103;46;20426;-65
2023/10/18 03:59:00;;;;;;;4.90;3.37;;;8.70;83.30;;;10.23;58.32;101560.56;3082629;46;20428;-64
2023/10/18 04:01:41;;;;;;;5.23;4.10;;;8.70;83.30;;;10.24;58.16;101564.03;3083192;46;20431;-66
2023/10/18 04:04:17;;;;;;;5.20;3.80;;;8.70;82.90;;;10.23;58.30;101552.66;3082533;46;20424;-65
2023/10/18 04:06:58;;;;;;;4.60;4.10;;;8.70;83.00;;;10.19;58.30;101549.53;3082880;46;20427;-65
2023/10/18 04:09:27;;;;;;;5.97;4.10;;;8.60;82.80;;;10.16;58.26;101549.81;3082430;46;20584;-66
2023/10/18 04:11:56;;;;;;;4.20;3.80;;;8.60;83.10;;;10.13;58.09;101547.47;3082909;46;20488;-65
2023/10/18 04:14:24;;;;;;;4.67;3.63;;;8.60;83.10;;;10.13;58.38;101551.91;3082579;46;21115;-66
2023/10/18 04:16:56;;;;;;;5.13;3.67;;;8.50;83.00;;;10.11;58.30;101538.06;3082407;46;20447;-66
2023/10/18 04:19:25;;;;;;;5.53;3.87;;;8.50;83.20;;;10.12;58.37;101537.13;3082470;46;21023;-66
2023/10/18 04:21:54;;;;;;;6.13;3.70;;;8.50;83.40;;;10.11;58.43;101527.53;3082567;46;20501;-66
2023/10/18 04:24:23;;;;;;;6.03;3.77;;;8.50;83.40;;;10.10;58.61;101536.41;3082619;46;20439;-65
2023/10/18 04:26:53;;;;;;;6.17;3.87;;;8.50;83.40;;;10.07;58.14;101532.28;3082116;46;20427;-66
2023/10/18 04:29:32;;;;;;;5.97;3.43;;;8.50;83.20;;;10.05;58.55;101533.41;3082152;46;21105;-65
2023/10/18 04:32:03;;;;;;;5.50;3.43;;;8.50;83.50;;;10.05;58.67;101523.72;3082410;46;20431;-66
2023/10/18 04:34:33;;;;;;;4.93;4.07;;;8.50;83.60;;;10.06;58.69;101524.53;3082606;46;21044;-65
2023/10/18 04:37:05;;;;;;;4.87;4.03;;;8.50;83.70;;;10.09;58.61;101517.19;3082231;46;20431;-67
2023/10/18 04:39:34;;;;;;;4.03;3.57;;;8.50;83.50;;;10.11;58.47;101511.75;3081065;46;20517;-63
2023/10/18 04:42:06;;;;;;;4.13;3.70;;;8.50;83.40;;;10.12;58.31;101510.81;3082655;46;20490;-66
2023/10/18 04:44:35;;;;;;;5.17;3.97;;;8.50;84.10;;;10.11;58.10;101501.22;3082698;46;20438;-65
2023/10/18 04:47:04;;;;;;;4.07;3.67;;;8.50;83.00;;;10.11;58.45;101504.72;3082470;46;20448;-66
2023/10/18 04:49:39;;;;;;;6.63;4.27;;;8.50;83.40;;;10.13;58.40;101504.56;3082004;46;21210;-65
2023/10/18 04:52:08;;;;;;;5.43;3.73;;;8.50;83.10;;;10.14;58.50;101500.97;3082019;46;20945;-66
2023/10/18 04:54:38;;;;;;;5.03;3.97;;;8.60;83.50;;;10.16;58.07;101494.59;3082005;46;21043;-66
2023/10/18 04:57:15;;;;;;;4.40;3.80;;;8.60;83.00;;;10.16;58.04;101494.59;3081559;46;20439;-64
2023/10/18 04:59:46;;;;;;;6.23;4.23;;;8.60;82.90;;;10.14;58.33;101491.28;3081739;46;20485;-65
2023/10/18 05:02:17;;;;;;;7.33;4.10;;;8.60;83.30;;;10.12;58.38;101485.34;3082313;46;20449;-65
2023/10/18 05:04:46;;;;;;;4.90;4.37;;;8.50;83.20;;;10.10;58.14;101486.44;3081708;46;21051;-66
2023/10/18 05:07:18;;;;;;;4.67;4.00;;;8.50;83.00;;;10.07;58.42;101473.59;3082332;46;20490;-63
2023/10/18 05:09:49;;;;;;;6.20;4.20;;;8.50;83.20;;;10.05;58.11;101480.81;3081814;46;20467;-65
2023/10/18 05:17:35;;;;;;;6.90;4.40;;;8.40;83.30;;;9.90;58.24;101453.41;3081715;46;20431;-65
2023/10/18 05:22:52;;;;;;;4.50;4.10;;;8.30;83.50;;;9.76;58.83;101452.16;3082102;46;20496;-66
2023/10/18 05:28:15;;;;;;;7.60;4.67;;;8.10;83.80;;;9.66;59.06;101455.81;3081954;46;20430;-64
2023/10/18 05:38:50;;;;;;;9.53;4.90;;;8.00;84.70;;;9.51;59.74;101445.84;3081530;46;20476;-62
2023/10/18 05:41:28;;;;;;;5.27;4.33;;;7.90;84.80;;;9.53;59.93;101457.03;3082160;46;20460;-66
2023/10/18 05:44:01;;;;;;;8.23;4.83;;;7.90;85.30;;;9.57;59.58;101454.09;3081464;46;21100;-63
2023/10/18 05:46:35;;;;;;;7.27;4.63;;;7.90;85.30;;;9.58;59.69;101455.78;3081325;46;20578;-65
2023/10/18 05:49:13;;;;;;;5.00;4.10;;;7.90;85.10;;;9.56;59.35;101448.03;3080899;46;20997;-66
2023/10/18 05:54:31;;;;;;;7.23;5.47;;;7.90;85.00;;;9.49;59.65;101453.06;3081484;46;20432;-65
2023/10/18 05:57:00;;;;;;;5.23;4.60;;;7.90;84.90;;;9.45;59.88;101446.47;3080472;46;20489;-65
2023/10/18 05:59:28;;;;;;;6.00;4.53;;;7.90;85.30;;;9.43;60.10;101448.41;3081039;46;20471;-66
2023/10/18 06:01:58;;;;;;;7.33;5.07;;;7.80;85.50;;;9.43;59.85;101443.16;3081488;46;21008;-64
2023/10/18 06:04:37;;;;;;;9.40;4.90;;;7.80;85.70;;;9.43;59.84;101443.16;3081102;46;21032;-66
2023/10/18 06:07:10;;;;;;;8.97;5.10;;;7.80;85.70;;;9.44;60.21;101446.59;3080925;46;21087;-65
2023/10/18 06:09:46;;;;;;;7.00;4.97;;;7.80;85.90;;;9.43;59.97;101451.03;3081060;46;20495;-65
2023/10/18 06:12:22;;;;;;;8.07;5.10;;;7.80;86.10;;;9.45;60.29;101438.56;3081238;46;20995;-66
2023/10/18 06:14:54;;;;;;;5.07;4.13;;;7.80;86.00;;;9.48;60.14;101435.63;3081186;46;21011;-66
2023/10/18 06:17:25;;;;;;;5.60;4.53;;;7.80;86.20;;;9.49;60.14;101437.28;3081351;46;20480;-66
2023/10/18 06:19:56;;;;;;;5.27;4.57;;;7.80;85.80;;;9.50;60.24;101428.44;3080831;46;20518;-66
2023/10/18 06:22:39;;;;;;;6.07;5.23;;;7.90;86.50;;;9.57;60.24;101427.84;3081019;46;20492;-65
2023/10/18 06:25:09;;;;;;;7.50;5.67;;;7.90;86.30;;;9.62;60.20;101426.41;3081179;46;20429;-65
2023/10/18 06:27:41;;;;;;;6.47;5.53;;;7.90;86.00;;;9.65;60.20;101426.09;3080771;46;20523;-67
2023/10/18 06:30:17;;;;;;;10.60;7.63;;;8.00;86.30;;;9.72;60.18;101423.69;3080709;46;21057;-64
2023/10/18 06:32:46;;;;;;;7.60;5.30;;;8.00;86.20;;;9.76;60.23;101420.63;3081103;46;21002;-65
2023/10/18 06:35:19;;;;;;;7.43;5.20;;;8.00;86.00;;;9.81;59.88;101420.16;3081205;46;20426;-66
2023/10/18 06:37:47;;;;;;;7.47;6.00;;;8.10;86.00;;;9.85;60.03;101411.81;3081129;46;20456;-66
2023/10/18 06:40:43;;;;;;;19.93;15.43;;;8.10;85.90;;;9.90;59.73;101408.72;3079599;46;21130;-66
2023/10/18 06:43:15;;;;;;;7.73;5.97;;;8.20;85.90;;;9.89;59.62;101414.97;3079292;46;20546;-66
2023/10/18 06:45:43;;;;;;;7.33;5.67;;;8.20;85.50;;;9.90;59.74;101411.34;3081084;46;20534;-61
2023/10/18 06:48:14;;;;;;;6.37;5.40;;;8.30;85.70;;;9.95;59.57;101422.22;3080803;46;20428;-64
2023/10/18 06:50:46;;;;;;;6.97;5.30;;;8.30;85.80;;;10.02;59.87;101410.13;3080202;46;20455;-63
2023/10/18 06:53:15;;;;;;;6.83;5.70;;;8.30;85.90;;;10.06;59.48;101408.81;3080941;46;21009;-64
2023/10/18 06:55:44;;;;;;;8.13;6.03;;;8.30;85.60;;;10.06;59.48;101414.06;3079369;46;21104;-66
2023/10/18 06:58:14;;;;;;;8.10;6.60;;;8.40;85.40;;;10.02;59.25;101408.31;3080839;46;20438;-66
2023/10/18 07:00:43;;;;;;;8.27;5.97;;;8.40;85.20;;;10.00;59.57;101414.72;3081618;46;20446;-68
2023/10/18 07:03:25;;;;;;;8.03;5.90;;;8.30;85.30;;;9.96;59.38;101413.38;3081008;46;20423;-65
2023/10/18 07:05:56;;;;;;;7.70;5.70;;;8.30;85.20;;;9.91;59.50;101407.75;3083340;46;20460;-67
2023/10/18 07:08:34;;;;;;;7.93;5.83;;;8.30;85.40;;;9.92;59.75;101406.75;3082327;46;20459;-66
2023/10/18 07:11:07;;;;;;;6.67;5.83;;;8.30;85.80;;;9.92;59.67;101407.59;3082674;46;20539;-66
2023/10/18 07:13:54;;;;;;;8.30;6.00;;;8.30;85.70;;;9.92;59.68;101412.00;3082604;46;20452;-66
2023/10/18 07:16:38;;;;;;;7.13;5.90;;;8.30;86.00;;;9.97;59.79;101410.56;3081856;46;20431;-67
2023/10/18 07:19:21;;;;;;;11.63;7.50;;;8.30;86.30;;;10.05;60.11;101404.56;3082268;46;20468;-67
2023/10/18 07:21:49;;;;;;;7.77;6.67;;;8.30;86.80;;;10.14;60.06;101401.84;3082888;46;20428;-66
2023/10/18 07:24:18;;;;;;;7.30;6.07;;;8.40;86.70;;;10.24;59.81;101401.75;3082083;46;20427;-67
2023/10/18 07:26:48;;;;;;;6.87;5.97;;;8.40;86.70;;;10.30;59.75;101397.66;3081795;46;20930;-61
2023/10/18 07:29:17;;;;;;;22.70;15.33;;;8.40;86.90;;;10.35;59.80;101388.31;3081012;46;20487;-70
2023/10/18 07:31:45;;;;;;;13.03;7.77;;;8.50;86.70;;;10.41;59.97;101392.13;3082326;46;20455;-69
2023/10/18 07:34:31;;;;;;;8.50;6.37;;;8.60;86.80;;;10.48;59.87;101386.09;3082778;46;20428;-68
2023/10/18 07:37:16;;;;;;;7.37;6.57;;;8.60;87.60;;;10.57;59.71;101382.50;3081986;46;21041;-67
2023/10/18 07:39:49;;;;;;;13.93;9.17;;;8.70;87.00;;;10.64;59.78;101377.41;3082468;46;21017;-69
2023/10/18 07:42:18;;;;;;;7.57;6.77;;;8.80;86.90;;;10.68;59.51;101374.31;3082320;46;20515;-67
2023/10/18 07:44:52;;;;;;;9.03;6.53;;;8.80;86.80;;;10.74;59.86;101368.38;3082400;46;20487;-68
2023/10/18 07:47:25;;;;;;;8.80;7.90;;;8.90;86.90;;;10.83;59.48;101371.88;3082021;46;20450;-67
2023/10/18 07:49:58;;;;;;;12.30;7.70;;;8.90;86.90;;;10.89;59.49;101368.59;3080225;46;21030;-67
2023/10/18 07:52:27;;;;;;;9.67;7.80;;;9.00;86.90;;;10.96;59.50;101371.44;3082662;46;20427;-67
2023/10/18 07:54:55;;;;;;;12.70;7.50;;;9.10;86.90;;;11.00;59.48;101367.47;3082742;46;20552;-69
2023/10/18 07:57:33;;;;;;;9.83;7.73;;;9.20;86.80;;;11.06;59.50;101361.56;3081903;46;20435;-66
2023/10/18 08:02:50;;;;;;;10.13;7.60;;;9.30;87.00;;;11.21;59.49;101357.31;3082848;46;20427;-67
2023/10/18 08:05:24;;;;;;;12.63;7.83;;;9.40;86.90;;;11.26;59.65;101355.00;3079525;46;20545;-67
2023/10/18 08:07:52;;;;;;;10.30;7.97;;;9.40;86.90;;;11.33;59.58;101350.72;3080548;46;21147;-67
2023/10/18 08:10:24;;;;;;;9.23;8.13;;;9.50;87.00;;;11.40;59.45;101344.66;3081966;46;20488;-67
2023/10/18 08:13:10;;;;;;;12.30;8.53;;;9.50;87.10;;;11.50;59.52;101347.13;3082201;46;20448;-69
2023/10/18 08:15:50;;;;;;;12.03;9.00;;;9.60;87.20;;;11.59;59.46;101340.84;3080893;46;20452;-67
2023/10/18 08:18:21;;;;;;;11.17;7.87;;;9.70;87.30;;;11.68;59.38;101347.78;3080110;46;20432;-67
2023/10/18 08:26:03;;;;;;;9.57;8.10;;;9.90;87.20;;;11.96;59.30;101333.22;3080922;46;20428;-68
2023/10/18 08:28:45;;;;;;;11.07;8.20;;;10.00;86.10;;;12.08;59.09;101331.88;3080514;46;20435;-68
2023/10/18 08:33:49;;;;;;;9.57;7.93;;;10.20;86.00;;;12.28;58.83;101328.84;3080950;46;20431;-69
2023/10/18 08:36:18;;;;;;;39.93;30.27;;;10.30;85.70;;;12.39;58.76;101329.28;3081249;46;20432;-68
2023/10/18 08:38:47;;;;;;;11.83;8.93;;;10.40;85.50;;;12.50;58.48;101322.81;3081426;46;20459;-68
2023/10/18 08:41:18;;;;;;;10.53;8.80;;;10.50;85.20;;;12.59;58.27;101321.78;3081539;46;21100;-68
2023/10/18 08:44:15;;;;;;;8.13;7.33;;;10.60;85.00;;;12.68;57.96;101315.44;3080667;46;20435;-68
2023/10/18 08:46:52;;;;;;;8.83;7.93;;;10.70;84.60;;;12.79;57.73;101318.50;3082424;46;20553;-68
2023/10/18 08:49:24;;;;;;;10.53;8.30;;;10.80;84.40;;;12.88;57.31;101306.88;3078756;46;20439;-67
2023/10/18 08:52:11;;;;;;;8.47;7.57;;;10.90;84.20;;;12.98;57.13;101306.66;3078356;46;20439;-69
2023/10/18 08:54:42;;;;;;;8.63;7.77;;;11.00;83.90;;;13.06;57.03;101306.63;3081846;46;20453;-67
2023/10/18 08:57:11;;;;;;;8.83;7.73;;;11.10;83.60;;;13.13;56.81;101299.66;3078819;46;21100;-70
2023/10/18 08:59:42;;;;;;;7.70;6.90;;;11.20;83.40;;;13.22;56.56;101303.88;3079471;46;20448;-70
2023/10/18 09:02:18;;;;;;;9.30;7.60;;;11.20;83.20;;;13.29;56.22;101294.22;3081055;46;20435;-68
2023/10/18 09:04:54;;;;;;;12.13;8.40;;;11.30;83.00;;;13.41;56.21;101295.44;3078713;46;20435;-68
2023/10/18 09:07:42;;;;;;;9.27;7.53;;;11.40;82.80;;;13.48;55.55;101298.19;3080500;46;20439;-68
2023/10/18 09:15:54;;;;;;;7.53;6.83;;;11.70;81.40;;;13.76;55.04;101295.78;3078033;46;20534;-69
2023/10/18 09:18:34;;;;;;;6.80;6.17;;;11.70;81.60;;;13.87;55.29;101290.03;3079356;46;21020;-69
2023/10/18 09:21:07;;;;;;;7.17;6.47;;;11.80;81.70;;;13.94;54.56;101288.28;3077821;46;20471;-68
2023/10/18 09:23:37;;;;;;;7.77;6.97;;;11.90;80.80;;;14.02;54.71;101285.56;3080042;46;20449;-68
2023/10/18 09:26:18;;;;;;;7.93;7.00;;;12.00;80.60;;;14.09;53.88;101281.19;3081203;46;20427;-69
2023/10/18 09:28:47;;;;;;;7.63;6.10;;;12.10;80.00;;;14.16;53.46;101284.72;3079616;46;21070;-70
2023/10/18 09:31:18;;;;;;;8.47;6.90;;;12.10;79.60;;;14.24;53.61;101276.66;3079338;46;20427;-69
2023/10/18 09:33:56;;;;;;;8.87;6.43;;;12.20;79.60;;;14.35;53.52;101275.41;3080766;46;20428;-68
2023/10/18 09:36:27;;;;;;;10.10;7.30;;;12.30;79.80;;;14.41;53.54;101262.25;3078166;46;20429;-69
2023/10/18 09:38:57;;;;;;;7.83;6.83;;;12.30;79.60;;;14.45;53.35;101260.88;3079365;46;20493;-67
2023/10/18 09:41:30;;;;;;;7.30;6.27;;;12.40;79.30;;;14.52;53.40;101268.91;3079972;46;21060;-67
2023/10/18 09:44:01;;;;;;;7.53;6.30;;;12.50;79.00;;;14.56;52.62;101262.22;3079251;46;21112;-69
2023/10/18 09:46:31;;;;;;;6.93;6.20;;;12.50;78.10;;;14.59;51.34;101249.41;3080058;46;20496;-68
2023/10/18 09:49:04;;;;;;;7.10;6.40;;;12.60;76.50;;;14.61;51.57;101258.00;3080201;46;20439;-69
2023/10/18 09:51:34;;;;;;;8.40;6.27;;;12.70;76.10;;;14.68;51.51;101248.28;3077367;46;20425;-68
2023/10/18 09:54:08;;;;;;;7.10;5.97;;;12.70;76.20;;;14.71;50.95;101247.09;3079219;46;20499;-68
2023/10/18 09:56:38;;;;;;;10.63;6.90;;;12.80;75.60;;;14.78;50.84;101243.50;3077024;46;20460;-69
2023/10/18 09:59:12;;;;;;;8.70;7.77;;;12.90;75.70;;;14.84;50.74;101236.59;3072066;46;20476;-67
2023/10/18 10:04:13;;;;;;;8.67;5.30;;;13.00;74.00;;;14.85;49.43;101233.78;3078657;46;21040;-68
2023/10/18 10:06:46;;;;;;;6.27;5.60;;;13.00;72.80;;;14.85;49.09;101230.31;3079315;46;20435;-68
2023/10/18 10:09:17;;;;;;;5.27;4.77;;;13.00;72.50;;;14.87;49.46;101226.47;3079461;46;20464;-69
2023/10/18 10:11:47;;;;;;;6.90;5.83;;;13.00;72.70;;;14.95;49.75;101230.81;3079772;46;21815;-68
2023/10/18 10:14:21;;;;;;;8.00;5.67;;;13.10;73.30;;;15.03;49.49;101227.19;3078756;46;20427;-69
2023/10/18 10:17:11;;;;;;;5.77;5.17;;;13.10;73.30;;;15.06;49.32;101232.94;3078550;46;20447;-68
2023/10/18 10:19:53;;;;;;;7.50;5.30;;;13.20;73.10;;;15.18;49.31;101225.28;3078341;46;20435;-68
2023/10/18 10:22:25;;;;;;;5.40;4.90;;;13.30;73.40;;;15.28;49.28;101220.47;3077281;46;20554;-69
2023/10/18 10:25:04;;;;;;;17.90;13.03;;;13.30;72.90;;;15.33;48.80;101212.75;3077776;46;20434;-67
2023/10/18 10:27:59;;;;;;;11.13;7.03;;;13.40;72.30;;;15.38;48.91;101205.03;3076357;46;20436;-68
2023/10/18 10:30:38;;;;;;;7.10;6.07;;;13.40;72.40;;;15.39;48.37;101199.53;3075378;46;21144;-68
2023/10/18 10:33:11;;;;;;;8.90;6.60;;;13.50;71.80;;;15.46;48.73;101196.94;3079377;46;20650;-68
2023/10/18 10:35:47;;;;;;;5.70;5.20;;;13.50;72.10;;;15.49;48.14;101197.38;3077735;46;20568;-68
2023/10/18 10:38:21;;;;;;;6.60;4.90;;;13.60;71.60;;;15.52;47.81;101204.94;3078780;46;20436;-69
2023/10/18 10:41:19;;;;;;;6.77;5.47;;;13.60;70.70;;;15.54;47.82;101196.78;3079375;46;20929;-69
2023/10/18 10:44:11;;;;;;;7.47;4.93;;;13.70;70.70;;;15.46;47.17;101202.25;3075336;46;20445;-69
2023/10/18 10:46:39;;;;;;;5.97;5.07;;;13.70;69.40;;;15.36;46.08;101199.06;3076984;46;20499;-68
2023/10/18 10:49:48;;;;;;;5.93;4.50;;;13.70;67.40;;;15.23;46.87;101191.03;3075191;46;20456;-68
2023/10/18 10:52:20;;;;;;;5.67;4.43;;;13.70;67.70;;;15.25;47.26;101183.72;3074301;43;20427;-68
2023/10/18 10:54:53;;;;;;;8.60;5.37;;;13.70;68.20;;;15.36;47.95;101180.50;3073750;46;20469;-69
2023/10/18 10:57:22;;;;;;;5.20;4.70;;;13.80;69.20;;;15.42;46.75;101174.44;3074026;46;20593;-68
2023/10/18 10:59:56;;;;;;;6.70;5.30;;;13.80;68.40;;;15.48;46.71;101168.38;3074303;46;20956;-69
2023/10/18 11:02:40;;;;;;;6.90;5.07;;;13.80;68.40;;;15.53;46.33;101161.47;3077929;46;21064;-69
2023/10/18 11:05:15;;;;;;;6.60;4.73;;;13.80;67.60;;;15.58;46.24;101152.91;3077117;46;21083;-67
2023/10/18 11:07:44;;;;;;;5.70;4.63;;;13.90;67.00;;;15.69;46.33;101152.34;3072541;46;20538;-67
2023/10/18 11:10:17;;;;;;;7.53;6.50;;;13.90;67.10;;;15.76;45.22;101147.88;3068986;46;20488;-68
2023/10/18 11:12:46;;;;;;;6.27;4.87;;;14.00;66.30;;;15.83;45.75;101140.75;3076157;46;20518;-69
2023/10/18 11:15:17;;;;;;;10.73;7.80;;;14.00;66.80;;;15.91;45.33;101148.56;3079101;46;20496;-68
2023/10/18 11:17:48;;;;;;;6.22;5.22;;;14.10;66.70;;;16.09;45.02;101130.22;3079679;46;22417;-69
2023/10/18 11:20:20;;;;;;;6.72;5.97;;;14.20;66.20;;;16.40;43.61;101128.88;3074369;46;22358;-70
2023/10/18 11:22:50;;;;;;;6.93;5.17;;;14.20;65.20;;;16.31;43.92;101122.13;3075101;46;20473;-69
2023/10/18 11:25:22;;;;;;;8.83;6.90;;;14.30;64.90;;;16.26;44.20;101114.72;3074159;46;20494;-69